sensor_id;sensor_type;location;lat;lon;timestamp;temperature;humidity
15455;DHT22;21057;51.024;7.540;2022-08-07T00:00:51;15.60;81.90
15455;DHT22;21057;51.024;7.540;2022-08-07T00:03:18;15.40;82.70
15455;DHT22;21057;51.024;7.540;2022-08-07T00:05:45;15.40;83.70
15455;DHT22;21057;51.024;7.540;2022-08-07T00:08:12;15.20;83.90
15455;DHT22;21057;51.024;7.540;2022-08-07T00:10:39;15.10;84.20
15455;DHT22;21057;51.024;7.540;2022-08-07T00:13:07;15.10;83.80
15455;DHT22;21057;51.024;7.540;2022-08-07T00:15:36;15.00;85.10
15455;DHT22;21057;51.024;7.540;2022-08-07T00:18:03;14.90;85.50
15455;DHT22;21057;51.024;7.540;2022-08-07T00:20:30;14.80;85.70
15455;DHT22;21057;51.024;7.540;2022-08-07T00:22:57;14.80;86.20
15455;DHT22;21057;51.024;7.540;2022-08-07T00:25:24;14.80;86.30
15455;DHT22;21057;51.024;7.540;2022-08-07T00:27:51;14.70;86.60
15455;DHT22;21057;51.024;7.540;2022-08-07T00:30:18;14.70;86.60
15455;DHT22;21057;51.024;7.540;2022-08-07T00:32:48;14.70;87.30
15455;DHT22;21057;51.024;7.540;2022-08-07T00:35:16;14.50;86.50
15455;DHT22;21057;51.024;7.540;2022-08-07T00:37:43;14.50;87.70
15455;DHT22;21057;51.024;7.540;2022-08-07T00:40:11;14.40;86.50
15455;DHT22;21057;51.024;7.540;2022-08-07T00:42:38;14.60;86.20
15455;DHT22;21057;51.024;7.540;2022-08-07T00:45:07;14.70;86.40
15455;DHT22;21057;51.024;7.540;2022-08-07T00:47:35;14.80;87.20
15455;DHT22;21057;51.024;7.540;2022-08-07T00:50:04;14.80;86.70
15455;DHT22;21057;51.024;7.540;2022-08-07T00:52:31;14.80;87.40
15455;DHT22;21057;51.024;7.540;2022-08-07T00:54:58;14.90;87.30
15455;DHT22;21057;51.024;7.540;2022-08-07T00:57:25;14.80;87.00
15455;DHT22;21057;51.024;7.540;2022-08-07T00:59:53;14.80;87.60
15455;DHT22;21057;51.024;7.540;2022-08-07T01:02:20;14.60;88.40
15455;DHT22;21057;51.024;7.540;2022-08-07T01:04:47;14.50;88.30
15455;DHT22;21057;51.024;7.540;2022-08-07T01:07:16;14.50;88.30
15455;DHT22;21057;51.024;7.540;2022-08-07T01:09:44;14.50;87.20
15455;DHT22;21057;51.024;7.540;2022-08-07T01:12:12;14.60;86.00
15455;DHT22;21057;51.024;7.540;2022-08-07T01:14:40;14.60;87.40
15455;DHT22;21057;51.024;7.540;2022-08-07T01:17:07;14.60;87.60
15455;DHT22;21057;51.024;7.540;2022-08-07T01:19:34;14.70;88.60
15455;DHT22;21057;51.024;7.540;2022-08-07T01:22:03;14.50;86.90
15455;DHT22;21057;51.024;7.540;2022-08-07T01:24:31;14.50;86.40
15455;DHT22;21057;51.024;7.540;2022-08-07T01:26:59;14.50;89.30
15455;DHT22;21057;51.024;7.540;2022-08-07T01:29:27;14.50;88.90
15455;DHT22;21057;51.024;7.540;2022-08-07T01:31:56;14.50;88.80
15455;DHT22;21057;51.024;7.540;2022-08-07T01:34:23;14.50;88.80
15455;DHT22;21057;51.024;7.540;2022-08-07T01:36:50;14.30;89.40
15455;DHT22;21057;51.024;7.540;2022-08-07T01:39:19;14.40;88.10
15455;DHT22;21057;51.024;7.540;2022-08-07T01:41:46;14.50;88.90
15455;DHT22;21057;51.024;7.540;2022-08-07T01:44:13;14.40;90.20
15455;DHT22;21057;51.024;7.540;2022-08-07T01:46:41;14.40;90.10
15455;DHT22;21057;51.024;7.540;2022-08-07T01:49:10;14.50;89.80
15455;DHT22;21057;51.024;7.540;2022-08-07T01:51:39;14.40;89.60
15455;DHT22;21057;51.024;7.540;2022-08-07T01:54:09;14.40;88.40
15455;DHT22;21057;51.024;7.540;2022-08-07T01:56:45;14.40;88.00
15455;DHT22;21057;51.024;7.540;2022-08-07T01:59:28;14.50;88.90
15455;DHT22;21057;51.024;7.540;2022-08-07T02:02:02;14.50;89.90
15455;DHT22;21057;51.024;7.540;2022-08-07T02:04:37;14.60;90.40
15455;DHT22;21057;51.024;7.540;2022-08-07T02:07:06;14.60;90.30
15455;DHT22;21057;51.024;7.540;2022-08-07T02:09:35;14.60;90.40
15455;DHT22;21057;51.024;7.540;2022-08-07T02:12:06;14.40;90.50
15455;DHT22;21057;51.024;7.540;2022-08-07T02:14:44;14.30;90.80
15455;DHT22;21057;51.024;7.540;2022-08-07T02:17:13;14.10;91.30
15455;DHT22;21057;51.024;7.540;2022-08-07T02:19:42;13.90;91.40
15455;DHT22;21057;51.024;7.540;2022-08-07T02:22:11;14.00;91.60
15455;DHT22;21057;51.024;7.540;2022-08-07T02:24:41;13.90;91.80
15455;DHT22;21057;51.024;7.540;2022-08-07T02:27:10;13.80;91.80
15455;DHT22;21057;51.024;7.540;2022-08-07T02:29:38;13.80;91.90
15455;DHT22;21057;51.024;7.540;2022-08-07T02:32:07;13.70;92.20
15455;DHT22;21057;51.024;7.540;2022-08-07T02:34:36;13.70;91.90
15455;DHT22;21057;51.024;7.540;2022-08-07T02:37:05;13.80;92.00
15455;DHT22;21057;51.024;7.540;2022-08-07T02:39:33;13.80;92.40
15455;DHT22;21057;51.024;7.540;2022-08-07T02:42:02;13.80;92.50
15455;DHT22;21057;51.024;7.540;2022-08-07T02:44:30;13.90;92.30
15455;DHT22;21057;51.024;7.540;2022-08-07T02:46:58;13.80;92.40
15455;DHT22;21057;51.024;7.540;2022-08-07T02:49:26;13.80;92.70
15455;DHT22;21057;51.024;7.540;2022-08-07T02:51:56;13.70;92.60
15455;DHT22;21057;51.024;7.540;2022-08-07T02:54:26;13.70;92.60
15455;DHT22;21057;51.024;7.540;2022-08-07T02:56:55;13.70;92.50
15455;DHT22;21057;51.024;7.540;2022-08-07T02:59:24;13.80;92.80
15455;DHT22;21057;51.024;7.540;2022-08-07T03:01:54;13.70;92.90
15455;DHT22;21057;51.024;7.540;2022-08-07T03:04:22;13.70;92.90
15455;DHT22;21057;51.024;7.540;2022-08-07T03:06:50;13.70;93.00
15455;DHT22;21057;51.024;7.540;2022-08-07T03:09:18;13.60;92.90
15455;DHT22;21057;51.024;7.540;2022-08-07T03:11:46;13.50;92.60
15455;DHT22;21057;51.024;7.540;2022-08-07T03:14:14;13.50;93.50
15455;DHT22;21057;51.024;7.540;2022-08-07T03:16:42;13.60;93.90
15455;DHT22;21057;51.024;7.540;2022-08-07T03:19:10;13.60;93.40
15455;DHT22;21057;51.024;7.540;2022-08-07T03:21:38;13.60;93.80
15455;DHT22;21057;51.024;7.540;2022-08-07T03:24:05;13.60;93.50
15455;DHT22;21057;51.024;7.540;2022-08-07T03:26:33;13.60;93.60
15455;DHT22;21057;51.024;7.540;2022-08-07T03:29:02;13.50;93.80
15455;DHT22;21057;51.024;7.540;2022-08-07T03:31:30;13.40;94.00
15455;DHT22;21057;51.024;7.540;2022-08-07T03:33:59;13.40;94.10
15455;DHT22;21057;51.024;7.540;2022-08-07T03:36:29;13.40;94.10
15455;DHT22;21057;51.024;7.540;2022-08-07T03:38:59;13.50;94.00
15455;DHT22;21057;51.024;7.540;2022-08-07T03:41:28;13.40;94.00
15455;DHT22;21057;51.024;7.540;2022-08-07T03:43:57;13.40;94.20
15455;DHT22;21057;51.024;7.540;2022-08-07T03:46:24;13.30;94.40
15455;DHT22;21057;51.024;7.540;2022-08-07T03:48:52;13.30;94.70
15455;DHT22;21057;51.024;7.540;2022-08-07T03:51:20;13.40;94.40
15455;DHT22;21057;51.024;7.540;2022-08-07T03:53:48;13.40;94.70
15455;DHT22;21057;51.024;7.540;2022-08-07T03:56:19;13.40;94.40
15455;DHT22;21057;51.024;7.540;2022-08-07T03:58:47;13.30;94.60
15455;DHT22;21057;51.024;7.540;2022-08-07T04:01:15;13.30;94.90
15455;DHT22;21057;51.024;7.540;2022-08-07T04:03:44;13.40;94.70
15455;DHT22;21057;51.024;7.540;2022-08-07T04:06:11;13.20;95.00
15455;DHT22;21057;51.024;7.540;2022-08-07T04:08:39;13.20;95.20
15455;DHT22;21057;51.024;7.540;2022-08-07T04:11:09;13.10;95.30
15455;DHT22;21057;51.024;7.540;2022-08-07T04:13:36;13.10;95.30
15455;DHT22;21057;51.024;7.540;2022-08-07T04:16:04;13.10;95.50
15455;DHT22;21057;51.024;7.540;2022-08-07T04:18:31;13.10;95.60
15455;DHT22;21057;51.024;7.540;2022-08-07T04:20:58;13.20;95.90
15455;DHT22;21057;51.024;7.540;2022-08-07T04:23:26;13.10;95.90
15455;DHT22;21057;51.024;7.540;2022-08-07T04:25:53;13.10;96.00
15455;DHT22;21057;51.024;7.540;2022-08-07T04:28:22;13.20;96.30
15455;DHT22;21057;51.024;7.540;2022-08-07T04:30:50;13.20;96.20
15455;DHT22;21057;51.024;7.540;2022-08-07T04:33:18;13.30;96.50
15455;DHT22;21057;51.024;7.540;2022-08-07T04:35:45;13.30;96.20
15455;DHT22;21057;51.024;7.540;2022-08-07T04:38:13;13.40;95.60
15455;DHT22;21057;51.024;7.540;2022-08-07T04:40:42;13.50;94.40
15455;DHT22;21057;51.024;7.540;2022-08-07T04:43:10;13.70;94.60
15455;DHT22;21057;51.024;7.540;2022-08-07T04:45:45;13.80;95.90
15455;DHT22;21057;51.024;7.540;2022-08-07T04:48:20;13.80;95.90
15455;DHT22;21057;51.024;7.540;2022-08-07T04:50:55;14.00;96.10
15455;DHT22;21057;51.024;7.540;2022-08-07T04:53:32;14.00;95.50
15455;DHT22;21057;51.024;7.540;2022-08-07T04:56:04;14.00;96.30
15455;DHT22;21057;51.024;7.540;2022-08-07T04:58:38;14.00;95.90
15455;DHT22;21057;51.024;7.540;2022-08-07T05:01:13;14.10;96.30
15455;DHT22;21057;51.024;7.540;2022-08-07T05:03:46;14.10;96.00
15455;DHT22;21057;51.024;7.540;2022-08-07T05:06:18;14.20;96.20
15455;DHT22;21057;51.024;7.540;2022-08-07T05:08:51;14.20;95.80
15455;DHT22;21057;51.024;7.540;2022-08-07T05:11:23;14.30;96.30
15455;DHT22;21057;51.024;7.540;2022-08-07T05:13:54;14.40;96.20
15455;DHT22;21057;51.024;7.540;2022-08-07T05:16:28;14.50;96.20
15455;DHT22;21057;51.024;7.540;2022-08-07T05:19:01;14.50;96.10
15455;DHT22;21057;51.024;7.540;2022-08-07T05:21:30;14.60;95.30
15455;DHT22;21057;51.024;7.540;2022-08-07T05:24:01;14.70;95.20
15455;DHT22;21057;51.024;7.540;2022-08-07T05:26:32;14.80;94.70
15455;DHT22;21057;51.024;7.540;2022-08-07T05:29:02;14.90;95.40
15455;DHT22;21057;51.024;7.540;2022-08-07T05:31:32;15.00;95.20
15455;DHT22;21057;51.024;7.540;2022-08-07T05:34:05;15.20;95.80
15455;DHT22;21057;51.024;7.540;2022-08-07T05:36:34;15.30;94.70
15455;DHT22;21057;51.024;7.540;2022-08-07T05:39:02;15.30;95.80
15455;DHT22;21057;51.024;7.540;2022-08-07T05:41:30;15.50;95.70
15455;DHT22;21057;51.024;7.540;2022-08-07T05:43:58;15.50;95.60
15455;DHT22;21057;51.024;7.540;2022-08-07T05:46:25;15.60;95.20
15455;DHT22;21057;51.024;7.540;2022-08-07T05:48:53;15.70;95.20
15455;DHT22;21057;51.024;7.540;2022-08-07T05:51:20;15.80;94.60
15455;DHT22;21057;51.024;7.540;2022-08-07T05:53:48;15.90;94.50
15455;DHT22;21057;51.024;7.540;2022-08-07T05:56:18;15.90;95.00
15455;DHT22;21057;51.024;7.540;2022-08-07T05:58:46;15.90;94.50
15455;DHT22;21057;51.024;7.540;2022-08-07T06:01:14;16.10;94.40
15455;DHT22;21057;51.024;7.540;2022-08-07T06:03:45;16.30;93.50
15455;DHT22;21057;51.024;7.540;2022-08-07T06:06:15;16.40;93.10
15455;DHT22;21057;51.024;7.540;2022-08-07T06:08:46;16.40;92.90
15455;DHT22;21057;51.024;7.540;2022-08-07T06:11:13;16.50;93.00
15455;DHT22;21057;51.024;7.540;2022-08-07T06:13:40;16.60;92.40
15455;DHT22;21057;51.024;7.540;2022-08-07T06:16:08;16.60;92.10
15455;DHT22;21057;51.024;7.540;2022-08-07T06:18:35;16.90;92.10
15455;DHT22;21057;51.024;7.540;2022-08-07T06:21:03;17.10;91.80
15455;DHT22;21057;51.024;7.540;2022-08-07T06:23:32;17.20;91.60
15455;DHT22;21057;51.024;7.540;2022-08-07T06:25:59;17.30;91.30
15455;DHT22;21057;51.024;7.540;2022-08-07T06:28:26;17.50;91.80
15455;DHT22;21057;51.024;7.540;2022-08-07T06:30:53;17.80;91.10
15455;DHT22;21057;51.024;7.540;2022-08-07T06:33:20;18.00;90.00
15455;DHT22;21057;51.024;7.540;2022-08-07T06:35:48;18.00;90.30
15455;DHT22;21057;51.024;7.540;2022-08-07T06:38:15;18.00;89.70
15455;DHT22;21057;51.024;7.540;2022-08-07T06:40:47;18.00;89.90
15455;DHT22;21057;51.024;7.540;2022-08-07T06:43:16;18.20;89.30
15455;DHT22;21057;51.024;7.540;2022-08-07T06:45:44;18.30;89.00
15455;DHT22;21057;51.024;7.540;2022-08-07T06:48:12;18.60;90.20
15455;DHT22;21057;51.024;7.540;2022-08-07T06:50:40;18.70;87.70
15455;DHT22;21057;51.024;7.540;2022-08-07T06:53:11;18.80;86.90
15455;DHT22;21057;51.024;7.540;2022-08-07T06:55:39;18.90;86.50
15455;DHT22;21057;51.024;7.540;2022-08-07T06:58:10;19.10;87.10
15455;DHT22;21057;51.024;7.540;2022-08-07T07:00:39;19.20;87.50
15455;DHT22;21057;51.024;7.540;2022-08-07T07:03:07;19.20;85.20
15455;DHT22;21057;51.024;7.540;2022-08-07T07:05:35;19.20;85.30
15455;DHT22;21057;51.024;7.540;2022-08-07T07:08:02;19.30;86.60
15455;DHT22;21057;51.024;7.540;2022-08-07T07:10:30;19.20;85.50
15455;DHT22;21057;51.024;7.540;2022-08-07T07:13:05;19.40;86.40
15455;DHT22;21057;51.024;7.540;2022-08-07T07:15:41;19.60;84.60
15455;DHT22;21057;51.024;7.540;2022-08-07T07:18:16;19.70;82.80
15455;DHT22;21057;51.024;7.540;2022-08-07T07:20:48;19.80;82.80
15455;DHT22;21057;51.024;7.540;2022-08-07T07:23:17;19.80;83.90
15455;DHT22;21057;51.024;7.540;2022-08-07T07:25:45;20.00;83.00
15455;DHT22;21057;51.024;7.540;2022-08-07T07:28:17;20.10;81.60
15455;DHT22;21057;51.024;7.540;2022-08-07T07:30:50;20.10;79.80
15455;DHT22;21057;51.024;7.540;2022-08-07T07:33:18;20.30;80.20
15455;DHT22;21057;51.024;7.540;2022-08-07T07:35:50;20.40;78.70
15455;DHT22;21057;51.024;7.540;2022-08-07T07:38:18;20.50;78.20
15455;DHT22;21057;51.024;7.540;2022-08-07T07:40:48;20.60;77.60
15455;DHT22;21057;51.024;7.540;2022-08-07T07:43:17;20.70;76.20
15455;DHT22;21057;51.024;7.540;2022-08-07T07:45:46;20.90;76.00
15455;DHT22;21057;51.024;7.540;2022-08-07T07:48:18;20.90;77.90
15455;DHT22;21057;51.024;7.540;2022-08-07T07:50:46;20.90;75.00
15455;DHT22;21057;51.024;7.540;2022-08-07T07:53:15;20.90;75.00
15455;DHT22;21057;51.024;7.540;2022-08-07T07:55:43;21.20;74.20
15455;DHT22;21057;51.024;7.540;2022-08-07T07:58:10;21.20;74.90
15455;DHT22;21057;51.024;7.540;2022-08-07T08:00:39;21.50;74.60
15455;DHT22;21057;51.024;7.540;2022-08-07T08:03:10;21.50;76.00
15455;DHT22;21057;51.024;7.540;2022-08-07T08:05:39;21.40;73.60
15455;DHT22;21057;51.024;7.540;2022-08-07T08:08:08;21.50;73.00
15455;DHT22;21057;51.024;7.540;2022-08-07T08:10:36;21.70;73.30
15455;DHT22;21057;51.024;7.540;2022-08-07T08:13:06;21.90;70.10
15455;DHT22;21057;51.024;7.540;2022-08-07T08:15:37;21.90;68.70
15455;DHT22;21057;51.024;7.540;2022-08-07T08:18:09;22.00;71.30
15455;DHT22;21057;51.024;7.540;2022-08-07T08:20:38;22.30;71.20
15455;DHT22;21057;51.024;7.540;2022-08-07T08:23:07;22.20;68.00
15455;DHT22;21057;51.024;7.540;2022-08-07T08:25:53;22.30;68.60
15455;DHT22;21057;51.024;7.540;2022-08-07T08:28:42;22.20;64.90
15455;DHT22;21057;51.024;7.540;2022-08-07T08:31:13;22.30;69.80
15455;DHT22;21057;51.024;7.540;2022-08-07T08:33:44;22.40;63.90
15455;DHT22;21057;51.024;7.540;2022-08-07T08:36:13;22.20;65.00
15455;DHT22;21057;51.024;7.540;2022-08-07T08:38:43;22.40;66.70
15455;DHT22;21057;51.024;7.540;2022-08-07T08:41:16;22.50;66.60
15455;DHT22;21057;51.024;7.540;2022-08-07T08:43:49;22.70;65.40
15455;DHT22;21057;51.024;7.540;2022-08-07T08:46:22;22.90;60.40
15455;DHT22;21057;51.024;7.540;2022-08-07T08:48:56;23.10;63.80
15455;DHT22;21057;51.024;7.540;2022-08-07T08:51:29;23.10;63.40
15455;DHT22;21057;51.024;7.540;2022-08-07T08:54:03;23.10;62.00
15455;DHT22;21057;51.024;7.540;2022-08-07T08:56:35;23.20;59.30
15455;DHT22;21057;51.024;7.540;2022-08-07T08:59:06;23.30;65.20
15455;DHT22;21057;51.024;7.540;2022-08-07T09:01:42;23.30;57.50
15455;DHT22;21057;51.024;7.540;2022-08-07T09:04:17;23.10;55.60
15455;DHT22;21057;51.024;7.540;2022-08-07T09:06:52;23.30;60.30
15455;DHT22;21057;51.024;7.540;2022-08-07T09:09:30;23.30;58.40
15455;DHT22;21057;51.024;7.540;2022-08-07T09:12:11;23.30;59.00
15455;DHT22;21057;51.024;7.540;2022-08-07T09:14:47;23.40;57.40
15455;DHT22;21057;51.024;7.540;2022-08-07T09:17:25;23.40;57.80
15455;DHT22;21057;51.024;7.540;2022-08-07T09:20:04;23.90;61.30
15455;DHT22;21057;51.024;7.540;2022-08-07T09:22:46;24.00;56.80
15455;DHT22;21057;51.024;7.540;2022-08-07T09:25:23;23.70;55.80
15455;DHT22;21057;51.024;7.540;2022-08-07T09:27:58;23.80;55.30
15455;DHT22;21057;51.024;7.540;2022-08-07T09:30:45;24.20;57.70
15455;DHT22;21057;51.024;7.540;2022-08-07T09:33:27;24.40;60.60
15455;DHT22;21057;51.024;7.540;2022-08-07T09:36:04;24.40;57.20
15455;DHT22;21057;51.024;7.540;2022-08-07T09:38:41;24.60;54.50
15455;DHT22;21057;51.024;7.540;2022-08-07T09:41:15;24.70;56.00
15455;DHT22;21057;51.024;7.540;2022-08-07T09:43:57;24.80;56.70
15455;DHT22;21057;51.024;7.540;2022-08-07T09:46:38;24.90;57.50
15455;DHT22;21057;51.024;7.540;2022-08-07T09:49:23;24.90;57.20
15455;DHT22;21057;51.024;7.540;2022-08-07T09:52:02;25.00;55.40
15455;DHT22;21057;51.024;7.540;2022-08-07T09:54:34;25.30;55.50
15455;DHT22;21057;51.024;7.540;2022-08-07T09:57:34;25.70;54.40
15455;DHT22;21057;51.024;7.540;2022-08-07T10:00:07;25.50;52.20
15455;DHT22;21057;51.024;7.540;2022-08-07T10:06:00;26.00;52.90
15455;DHT22;21057;51.024;7.540;2022-08-07T10:08:56;26.10;55.20
15455;DHT22;21057;51.024;7.540;2022-08-07T10:11:43;26.20;53.30
15455;DHT22;21057;51.024;7.540;2022-08-07T10:14:27;26.40;50.70
15455;DHT22;21057;51.024;7.540;2022-08-07T10:17:05;26.10;47.40
15455;DHT22;21057;51.024;7.540;2022-08-07T10:19:40;26.20;54.10
15455;DHT22;21057;51.024;7.540;2022-08-07T10:25:23;27.10;51.00
15455;DHT22;21057;51.024;7.540;2022-08-07T10:28:07;27.60;51.10
15455;DHT22;21057;51.024;7.540;2022-08-07T10:30:49;27.90;51.80
15455;DHT22;21057;51.024;7.540;2022-08-07T10:33:36;28.10;49.40
15455;DHT22;21057;51.024;7.540;2022-08-07T10:36:18;28.10;47.80
15455;DHT22;21057;51.024;7.540;2022-08-07T10:38:51;28.30;51.10
15455;DHT22;21057;51.024;7.540;2022-08-07T10:41:30;28.50;47.80
15455;DHT22;21057;51.024;7.540;2022-08-07T10:44:05;28.20;45.10
15455;DHT22;21057;51.024;7.540;2022-08-07T10:46:40;28.20;49.50
15455;DHT22;21057;51.024;7.540;2022-08-07T10:49:14;28.30;46.40
15455;DHT22;21057;51.024;7.540;2022-08-07T10:51:52;28.50;46.80
15455;DHT22;21057;51.024;7.540;2022-08-07T10:54:28;28.90;48.50
15455;DHT22;21057;51.024;7.540;2022-08-07T10:57:07;28.10;43.60
15455;DHT22;21057;51.024;7.540;2022-08-07T10:59:52;28.00;45.20
15455;DHT22;21057;51.024;7.540;2022-08-07T11:02:28;28.70;45.80
15455;DHT22;21057;51.024;7.540;2022-08-07T11:05:05;28.10;43.70
15455;DHT22;21057;51.024;7.540;2022-08-07T11:07:39;28.80;44.80
15455;DHT22;21057;51.024;7.540;2022-08-07T11:10:17;29.10;45.20
15455;DHT22;21057;51.024;7.540;2022-08-07T11:12:51;29.50;43.90
15455;DHT22;21057;51.024;7.540;2022-08-07T11:15:24;30.10;44.80
15455;DHT22;21057;51.024;7.540;2022-08-07T11:17:59;30.30;44.90
15455;DHT22;21057;51.024;7.540;2022-08-07T11:20:36;30.60;42.20
15455;DHT22;21057;51.024;7.540;2022-08-07T11:23:10;30.80;42.40
15455;DHT22;21057;51.024;7.540;2022-08-07T11:25:42;30.70;42.70
15455;DHT22;21057;51.024;7.540;2022-08-07T11:38:44;30.90;41.20
15455;DHT22;21057;51.024;7.540;2022-08-07T11:41:13;31.80;42.00
15455;DHT22;21057;51.024;7.540;2022-08-07T11:43:47;31.40;42.50
15455;DHT22;21057;51.024;7.540;2022-08-07T11:46:42;31.70;42.60
15455;DHT22;21057;51.024;7.540;2022-08-07T11:52:44;31.20;41.20
15455;DHT22;21057;51.024;7.540;2022-08-07T11:55:25;31.20;39.80
15455;DHT22;21057;51.024;7.540;2022-08-07T11:58:01;31.30;41.40
15455;DHT22;21057;51.024;7.540;2022-08-07T12:00:37;31.10;38.20
15455;DHT22;21057;51.024;7.540;2022-08-07T12:03:35;31.30;40.00
15455;DHT22;21057;51.024;7.540;2022-08-07T12:06:17;31.10;40.60
15455;DHT22;21057;51.024;7.540;2022-08-07T12:08:49;31.20;40.50
15455;DHT22;21057;51.024;7.540;2022-08-07T12:11:23;31.60;39.30
15455;DHT22;21057;51.024;7.540;2022-08-07T12:13:56;32.00;39.20
15455;DHT22;21057;51.024;7.540;2022-08-07T12:16:26;32.30;37.40
15455;DHT22;21057;51.024;7.540;2022-08-07T12:19:00;31.80;36.70
15455;DHT22;21057;51.024;7.540;2022-08-07T12:21:36;31.90;39.70
15455;DHT22;21057;51.024;7.540;2022-08-07T12:24:12;31.40;38.40
15455;DHT22;21057;51.024;7.540;2022-08-07T12:26:45;31.20;39.80
15455;DHT22;21057;51.024;7.540;2022-08-07T12:29:18;31.90;37.20
15455;DHT22;21057;51.024;7.540;2022-08-07T12:31:50;32.20;37.30
15455;DHT22;21057;51.024;7.540;2022-08-07T12:34:24;32.50;35.50
15455;DHT22;21057;51.024;7.540;2022-08-07T12:36:52;33.00;36.80
15455;DHT22;21057;51.024;7.540;2022-08-07T12:39:21;32.90;38.90
15455;DHT22;21057;51.024;7.540;2022-08-07T12:41:51;33.60;37.20
15455;DHT22;21057;51.024;7.540;2022-08-07T12:44:19;33.50;37.10
15455;DHT22;21057;51.024;7.540;2022-08-07T12:46:59;33.00;37.90
15455;DHT22;21057;51.024;7.540;2022-08-07T12:49:36;32.20;36.00
15455;DHT22;21057;51.024;7.540;2022-08-07T12:52:11;32.30;40.20
15455;DHT22;21057;51.024;7.540;2022-08-07T12:54:43;32.70;36.30
15455;DHT22;21057;51.024;7.540;2022-08-07T12:57:15;32.90;38.00
15455;DHT22;21057;51.024;7.540;2022-08-07T12:59:43;32.70;37.10
15455;DHT22;21057;51.024;7.540;2022-08-07T13:02:30;32.50;37.40
15455;DHT22;21057;51.024;7.540;2022-08-07T13:05:08;32.00;38.40
15455;DHT22;21057;51.024;7.540;2022-08-07T13:08:01;31.50;40.40
15455;DHT22;21057;51.024;7.540;2022-08-07T13:10:41;31.80;39.00
15455;DHT22;21057;51.024;7.540;2022-08-07T13:13:24;32.20;39.90
15455;DHT22;21057;51.024;7.540;2022-08-07T13:15:58;32.20;37.60
15455;DHT22;21057;51.024;7.540;2022-08-07T13:18:33;31.70;37.20
15455;DHT22;21057;51.024;7.540;2022-08-07T13:21:08;30.40;38.50
15455;DHT22;21057;51.024;7.540;2022-08-07T13:23:46;31.20;40.00
15455;DHT22;21057;51.024;7.540;2022-08-07T13:26:21;31.70;40.10
15455;DHT22;21057;51.024;7.540;2022-08-07T13:28:57;31.80;37.60
15455;DHT22;21057;51.024;7.540;2022-08-07T13:31:29;32.00;38.20
15455;DHT22;21057;51.024;7.540;2022-08-07T13:34:04;32.40;37.20
15455;DHT22;21057;51.024;7.540;2022-08-07T13:36:36;32.50;38.30
15455;DHT22;21057;51.024;7.540;2022-08-07T13:39:09;32.80;38.00
15455;DHT22;21057;51.024;7.540;2022-08-07T13:41:43;31.50;36.60
15455;DHT22;21057;51.024;7.540;2022-08-07T13:44:13;31.40;37.90
15455;DHT22;21057;51.024;7.540;2022-08-07T13:46:45;31.80;39.70
15455;DHT22;21057;51.024;7.540;2022-08-07T13:49:16;31.90;40.30
15455;DHT22;21057;51.024;7.540;2022-08-07T13:51:44;31.50;38.00
15455;DHT22;21057;51.024;7.540;2022-08-07T13:54:13;32.00;39.40
15455;DHT22;21057;51.024;7.540;2022-08-07T13:56:42;32.20;38.30
15455;DHT22;21057;51.024;7.540;2022-08-07T13:59:16;32.00;37.30
15455;DHT22;21057;51.024;7.540;2022-08-07T14:01:50;32.30;38.40
15455;DHT22;21057;51.024;7.540;2022-08-07T14:04:19;32.80;39.20
15455;DHT22;21057;51.024;7.540;2022-08-07T14:06:51;32.50;38.30
15455;DHT22;21057;51.024;7.540;2022-08-07T14:09:20;32.00;36.90
15455;DHT22;21057;51.024;7.540;2022-08-07T14:11:51;31.20;38.10
15455;DHT22;21057;51.024;7.540;2022-08-07T14:14:24;31.00;40.20
15455;DHT22;21057;51.024;7.540;2022-08-07T14:16:55;31.20;39.40
15455;DHT22;21057;51.024;7.540;2022-08-07T14:19:33;30.90;38.40
15455;DHT22;21057;51.024;7.540;2022-08-07T14:22:03;30.60;38.90
15455;DHT22;21057;51.024;7.540;2022-08-07T14:24:35;31.10;41.10
15455;DHT22;21057;51.024;7.540;2022-08-07T14:27:05;31.50;37.80
15455;DHT22;21057;51.024;7.540;2022-08-07T14:29:40;31.60;38.80
15455;DHT22;21057;51.024;7.540;2022-08-07T14:32:09;31.60;38.70
15455;DHT22;21057;51.024;7.540;2022-08-07T14:34:40;31.70;38.40
15455;DHT22;21057;51.024;7.540;2022-08-07T14:37:09;31.60;38.20
15455;DHT22;21057;51.024;7.540;2022-08-07T14:39:37;30.70;37.00
15455;DHT22;21057;51.024;7.540;2022-08-07T14:42:07;31.50;39.20
15455;DHT22;21057;51.024;7.540;2022-08-07T14:44:38;31.80;38.80
15455;DHT22;21057;51.024;7.540;2022-08-07T14:47:10;31.90;39.20
15455;DHT22;21057;51.024;7.540;2022-08-07T14:49:39;32.00;38.30
15455;DHT22;21057;51.024;7.540;2022-08-07T14:52:08;32.10;37.60
15455;DHT22;21057;51.024;7.540;2022-08-07T14:54:38;32.20;36.80
15455;DHT22;21057;51.024;7.540;2022-08-07T14:57:10;32.50;38.20
15455;DHT22;21057;51.024;7.540;2022-08-07T14:59:40;31.80;37.50
15455;DHT22;21057;51.024;7.540;2022-08-07T15:02:09;31.40;38.80
15455;DHT22;21057;51.024;7.540;2022-08-07T15:04:39;31.50;37.60
15455;DHT22;21057;51.024;7.540;2022-08-07T15:07:08;31.20;37.10
15455;DHT22;21057;51.024;7.540;2022-08-07T15:09:38;30.70;39.00
15455;DHT22;21057;51.024;7.540;2022-08-07T15:12:09;31.20;38.80
15455;DHT22;21057;51.024;7.540;2022-08-07T15:14:45;31.20;38.70
15455;DHT22;21057;51.024;7.540;2022-08-07T15:17:15;31.10;37.50
15455;DHT22;21057;51.024;7.540;2022-08-07T15:19:48;31.00;39.50
15455;DHT22;21057;51.024;7.540;2022-08-07T15:22:16;30.30;40.40
15455;DHT22;21057;51.024;7.540;2022-08-07T15:24:48;30.00;41.10
15455;DHT22;21057;51.024;7.540;2022-08-07T15:27:19;30.00;41.10
15455;DHT22;21057;51.024;7.540;2022-08-07T15:29:50;30.40;40.30
15455;DHT22;21057;51.024;7.540;2022-08-07T15:32:19;30.50;40.20
15455;DHT22;21057;51.024;7.540;2022-08-07T15:34:49;29.70;41.50
15455;DHT22;21057;51.024;7.540;2022-08-07T15:37:19;29.00;40.00
15455;DHT22;21057;51.024;7.540;2022-08-07T15:39:48;29.30;43.30
15455;DHT22;21057;51.024;7.540;2022-08-07T15:42:45;30.10;40.90
15455;DHT22;21057;51.024;7.540;2022-08-07T15:45:29;30.40;42.00
15455;DHT22;21057;51.024;7.540;2022-08-07T15:47:59;30.00;40.60
15455;DHT22;21057;51.024;7.540;2022-08-07T15:50:30;30.00;40.30
15455;DHT22;21057;51.024;7.540;2022-08-07T15:53:03;29.70;41.50
15455;DHT22;21057;51.024;7.540;2022-08-07T15:55:32;29.00;43.10
15455;DHT22;21057;51.024;7.540;2022-08-07T15:58:02;29.30;41.10
15455;DHT22;21057;51.024;7.540;2022-08-07T16:00:34;29.10;42.60
15455;DHT22;21057;51.024;7.540;2022-08-07T16:03:09;29.40;43.20
15455;DHT22;21057;51.024;7.540;2022-08-07T16:05:38;29.50;42.10
15455;DHT22;21057;51.024;7.540;2022-08-07T16:08:12;29.00;43.00
15455;DHT22;21057;51.024;7.540;2022-08-07T16:10:41;28.60;43.00
15455;DHT22;21057;51.024;7.540;2022-08-07T16:13:40;28.70;43.70
15455;DHT22;21057;51.024;7.540;2022-08-07T16:16:17;28.90;43.90
15455;DHT22;21057;51.024;7.540;2022-08-07T16:18:59;28.90;43.50